sensor_id;sensor_type;location;lat;lon;timestamp;pressure;altitude;pressure_sealevel;temperature;humidity
62712;BME280;48772;55.586;37.730;2022-12-10T00:01:46;99251.56;;;-2.71;100.00
62712;BME280;48772;55.586;37.730;2022-12-10T00:04:13;99248.22;;;-2.74;100.00
62712;BME280;48772;55.586;37.730;2022-12-10T00:06:40;99253.47;;;-2.76;100.00
62712;BME280;48772;55.586;37.730;2022-12-10T00:09:09;99274.34;;;-2.76;100.00
62712;BME280;48772;55.586;37.730;2022-12-10T00:11:37;99242.69;;;-2.91;100.00
62712;BME280;48772;55.586;37.730;2022-12-10T00:14:04;99273.38;;;-2.73;100.00
62712;BME280;48772;55.586;37.730;2022-12-10T00:16:30;99280.31;;;-2.72;100.00
62712;BME280;48772;55.586;37.730;2022-12-10T00:18:59;99282.88;;;-2.71;100.00
62712;BME280;48772;55.586;37.730;2022-12-10T00:21:32;99271.56;;;-2.71;100.00
62712;BME280;48772;55.586;37.730;2022-12-10T00:23:59;99261.31;;;-2.76;100.00
62712;BME280;48772;55.586;37.730;2022-12-10T00:26:28;99271.28;;;-2.62;100.00
62712;BME280;48772;55.586;37.730;2022-12-10T00:28:55;99256.69;;;-2.68;100.00
62712;BME280;48772;55.586;37.730;2022-12-10T00:31:27;99262.84;;;-2.70;100.00
62712;BME280;48772;55.586;37.730;2022-12-10T00:33:55;99260.13;;;-2.67;100.00
62712;BME280;48772;55.586;37.730;2022-12-10T00:36:24;99244.69;;;-2.73;100.00
62712;BME280;48772;55.586;37.730;2022-12-10T00:38:52;99257.50;;;-2.67;100.00
62712;BME280;48772;55.586;37.730;2022-12-10T00:41:18;99239.31;;;-2.69;100.00
62712;BME280;48772;55.586;37.730;2022-12-10T00:43:44;99247.41;;;-2.76;100.00
62712;BME280;48772;55.586;37.730;2022-12-10T00:46:12;99253.19;;;-2.68;100.00
62712;BME280;48772;55.586;37.730;2022-12-10T00:48:40;99255.03;;;-2.70;100.00
62712;BME280;48772;55.586;37.730;2022-12-10T00:51:09;99251.47;;;-2.68;100.00
62712;BME280;48772;55.586;37.730;2022-12-10T00:53:37;99240.09;;;-2.67;100.00
62712;BME280;48772;55.586;37.730;2022-12-10T00:56:06;99244.31;;;-2.63;100.00
62712;BME280;48772;55.586;37.730;2022-12-10T00:58:34;99233.84;;;-2.61;100.00
62712;BME280;48772;55.586;37.730;2022-12-10T01:03:41;99216.56;;;-2.65;100.00
62712;BME280;48772;55.586;37.730;2022-12-10T01:06:33;99201.19;;;-2.73;100.00
62712;BME280;48772;55.586;37.730;2022-12-10T01:09:02;99196.91;;;-2.75;100.00
62712;BME280;48772;55.586;37.730;2022-12-10T01:11:31;99199.44;;;-2.72;100.00
62712;BME280;48772;55.586;37.730;2022-12-10T01:13:58;99195.97;;;-2.73;100.00
62712;BME280;48772;55.586;37.730;2022-12-10T01:16:24;99180.53;;;-2.79;100.00
62712;BME280;48772;55.586;37.730;2022-12-10T01:18:55;99187.19;;;-2.70;100.00
62712;BME280;48772;55.586;37.730;2022-12-10T01:21:22;99199.13;;;-2.63;100.00
62712;BME280;48772;55.586;37.730;2022-12-10T01:23:49;99198.28;;;-2.64;100.00
62712;BME280;48772;55.586;37.730;2022-12-10T01:26:18;99182.66;;;-2.65;100.00
62712;BME280;48772;55.586;37.730;2022-12-10T01:28:44;99182.81;;;-2.70;100.00
62712;BME280;48772;55.586;37.730;2022-12-10T01:31:12;99196.53;;;-2.63;100.00
62712;BME280;48772;55.586;37.730;2022-12-10T01:33:40;99192.19;;;-2.64;100.00
62712;BME280;48772;55.586;37.730;2022-12-10T01:36:18;99173.34;;;-2.72;100.00
62712;BME280;48772;55.586;37.730;2022-12-10T01:38:45;99184.47;;;-2.67;100.00
62712;BME280;48772;55.586;37.730;2022-12-10T01:41:17;99181.75;;;-2.64;100.00
62712;BME280;48772;55.586;37.730;2022-12-10T01:43:54;99195.44;;;-2.58;100.00
62712;BME280;48772;55.586;37.730;2022-12-10T01:46:22;99170.63;;;-2.69;100.00
62712;BME280;48772;55.586;37.730;2022-12-10T01:48:49;99198.84;;;-2.56;100.00
62712;BME280;48772;55.586;37.730;2022-12-10T01:51:16;99178.31;;;-2.65;100.00
62712;BME280;48772;55.586;37.730;2022-12-10T01:53:43;99209.13;;;-2.51;100.00
62712;BME280;48772;55.586;37.730;2022-12-10T01:56:11;99208.25;;;-2.52;100.00
62712;BME280;48772;55.586;37.730;2022-12-10T01:58:38;99204.69;;;-2.49;100.00
62712;BME280;48772;55.586;37.730;2022-12-10T02:01:14;99195.88;;;-2.45;100.00
62712;BME280;48772;55.586;37.730;2022-12-10T02:04:04;99183.13;;;-2.54;100.00
62712;BME280;48772;55.586;37.730;2022-12-10T02:09:58;99198.09;;;-2.35;100.00
62712;BME280;48772;55.586;37.730;2022-12-10T02:12:46;99196.50;;;-2.39;100.00
62712;BME280;48772;55.586;37.730;2022-12-10T02:15:19;99179.25;;;-2.43;100.00
62712;BME280;48772;55.586;37.730;2022-12-10T02:20:55;99195.63;;;-2.39;100.00
62712;BME280;48772;55.586;37.730;2022-12-10T02:23:26;99185.19;;;-2.39;100.00
62712;BME280;48772;55.586;37.730;2022-12-10T02:28:47;99197.19;;;-2.34;100.00
62712;BME280;48772;55.586;37.730;2022-12-10T02:31:18;99176.34;;;-2.35;100.00
62712;BME280;48772;55.586;37.730;2022-12-10T02:33:50;99191.19;;;-2.36;100.00
62712;BME280;48772;55.586;37.730;2022-12-10T02:36:18;99198.09;;;-2.35;100.00
62712;BME280;48772;55.586;37.730;2022-12-10T02:38:48;99207.66;;;-2.35;100.00
62712;BME280;48772;55.586;37.730;2022-12-10T02:41:25;99204.91;;;-2.31;100.00
62712;BME280;48772;55.586;37.730;2022-12-10T02:43:54;99178.38;;;-2.43;100.00
62712;BME280;48772;55.586;37.730;2022-12-10T02:46:24;99197.28;;;-2.37;100.00
62712;BME280;48772;55.586;37.730;2022-12-10T02:48:54;99198.09;;;-2.35;100.00
62712;BME280;48772;55.586;37.730;2022-12-10T02:51:20;99194.84;;;-2.41;100.00
62712;BME280;48772;55.586;37.730;2022-12-10T02:53:47;99199.06;;;-2.37;100.00
62712;BME280;48772;55.586;37.730;2022-12-10T02:56:20;99176.06;;;-2.51;100.00
62712;BME280;48772;55.586;37.730;2022-12-10T02:59:22;99178.38;;;-2.43;100.00
62712;BME280;48772;55.586;37.730;2022-12-10T03:02:07;99163.63;;;-2.44;100.00
62712;BME280;48772;55.586;37.730;2022-12-10T03:04:53;99175.28;;;-2.30;100.00
62712;BME280;48772;55.586;37.730;2022-12-10T03:07:33;99177.22;;;-2.35;100.00
62712;BME280;48772;55.586;37.730;2022-12-10T03:10:32;99158.19;;;-2.38;100.00
62712;BME280;48772;55.586;37.730;2022-12-10T03:13:00;99189.13;;;-2.28;100.00
62712;BME280;48772;55.586;37.730;2022-12-10T03:15:29;99180.59;;;-2.33;100.00
62712;BME280;48772;55.586;37.730;2022-12-10T03:17:58;99181.47;;;-2.32;100.00
62712;BME280;48772;55.586;37.730;2022-12-10T03:20:26;99161.81;;;-2.42;100.00
62712;BME280;48772;55.586;37.730;2022-12-10T03:22:53;99190.94;;;-2.30;100.00
62712;BME280;48772;55.586;37.730;2022-12-10T03:25:23;99130.38;;;-2.62;100.00
62712;BME280;48772;55.586;37.730;2022-12-10T03:27:51;99189.88;;;-2.24;100.00
62712;BME280;48772;55.586;37.730;2022-12-10T03:30:19;99149.88;;;-2.49;100.00
62712;BME280;48772;55.586;37.730;2022-12-10T03:32:46;99170.88;;;-2.28;100.00
62712;BME280;48772;55.586;37.730;2022-12-10T03:35:13;99193.19;;;-2.19;100.00
62712;BME280;48772;55.586;37.730;2022-12-10T03:37:40;99160.94;;;-2.41;100.00
62712;BME280;48772;55.586;37.730;2022-12-10T03:40:07;99160.69;;;-2.35;100.00
62712;BME280;48772;55.586;37.730;2022-12-10T03:42:37;99173.31;;;-2.23;100.00
62712;BME280;48772;55.586;37.730;2022-12-10T03:45:04;99201.69;;;-2.14;100.00
62712;BME280;48772;55.586;37.730;2022-12-10T03:47:30;99202.72;;;-2.18;100.00
62712;BME280;48772;55.586;37.730;2022-12-10T03:49:55;99193.44;;;-2.27;100.00
62712;BME280;48772;55.586;37.730;2022-12-10T03:52:21;99185.66;;;-2.28;100.00
62712;BME280;48772;55.586;37.730;2022-12-10T03:54:47;99195.38;;;-2.32;100.00
62712;BME280;48772;55.586;37.730;2022-12-10T03:57:12;99173.06;;;-2.40;100.00
62712;BME280;48772;55.586;37.730;2022-12-10T03:59:38;99176.91;;;-2.27;100.00
62712;BME280;48772;55.586;37.730;2022-12-10T04:02:04;99181.00;;;-2.20;100.00
62712;BME280;48772;55.586;37.730;2022-12-10T04:04:30;99189.09;;;-2.26;100.00
62712;BME280;48772;55.586;37.730;2022-12-10T04:06:56;99168.41;;;-2.32;100.00
62712;BME280;48772;55.586;37.730;2022-12-10T04:09:21;99161.50;;;-2.33;100.00
62712;BME280;48772;55.586;37.730;2022-12-10T04:11:47;99140.78;;;-2.38;100.00
62712;BME280;48772;55.586;37.730;2022-12-10T04:14:13;99156.28;;;-2.33;100.00
62712;BME280;48772;55.586;37.730;2022-12-10T04:16:58;99169.84;;;-2.24;100.00
62712;BME280;48772;55.586;37.730;2022-12-10T04:19:24;99174.19;;;-2.24;100.00
62712;BME280;48772;55.586;37.730;2022-12-10T04:21:50;99144.19;;;-2.36;100.00
62712;BME280;48772;55.586;37.730;2022-12-10T04:24:37;99161.94;;;-2.22;100.00
62712;BME280;48772;55.586;37.730;2022-12-10T04:29:50;99175.34;;;-2.08;100.00
62712;BME280;48772;55.586;37.730;2022-12-10T04:32:16;99157.44;;;-2.19;100.00
62712;BME280;48772;55.586;37.730;2022-12-10T04:34:42;99180.44;;;-2.05;100.00
62712;BME280;48772;55.586;37.730;2022-12-10T04:37:08;99165.00;;;-2.11;100.00
62712;BME280;48772;55.586;37.730;2022-12-10T04:39:34;99165.06;;;-2.13;100.00
62712;BME280;48772;55.586;37.730;2022-12-10T04:42:00;99185.38;;;-1.98;100.00
62712;BME280;48772;55.586;37.730;2022-12-10T04:44:26;99177.81;;;-2.05;100.00
62712;BME280;48772;55.586;37.730;2022-12-10T04:46:52;99191.63;;;-2.02;100.00
62712;BME280;48772;55.586;37.730;2022-12-10T04:49:18;99164.09;;;-2.10;100.00
62712;BME280;48772;55.586;37.730;2022-12-10T04:51:44;99140.25;;;-2.24;100.00
62712;BME280;48772;55.586;37.730;2022-12-10T04:54:10;99181.03;;;-1.97;100.00
62712;BME280;48772;55.586;37.730;2022-12-10T04:56:36;99181.03;;;-1.97;100.00
62712;BME280;48772;55.586;37.730;2022-12-10T04:59:03;99177.44;;;-1.95;100.00
62712;BME280;48772;55.586;37.730;2022-12-10T05:01:29;99171.47;;;-1.98;100.00
62712;BME280;48772;55.586;37.730;2022-12-10T05:03:58;99127.19;;;-2.24;100.00
62712;BME280;48772;55.586;37.730;2022-12-10T05:06:25;99163.81;;;-2.03;100.00
62712;BME280;48772;55.586;37.730;2022-12-10T05:08:50;99153.50;;;-2.06;100.00
62712;BME280;48772;55.586;37.730;2022-12-10T05:11:21;99162.69;;;-1.96;100.00
62712;BME280;48772;55.586;37.730;2022-12-10T05:13:47;99134.41;;;-2.08;100.00
62712;BME280;48772;55.586;37.730;2022-12-10T05:16:15;99157.38;;;-1.94;100.00
62712;BME280;48772;55.586;37.730;2022-12-10T05:18:42;99146.25;;;-1.99;100.00
62712;BME280;48772;55.586;37.730;2022-12-10T05:21:11;99135.25;;;-2.07;100.00
62712;BME280;48772;55.586;37.730;2022-12-10T05:23:39;99172.94;;;-1.91;100.00
62712;BME280;48772;55.586;37.730;2022-12-10T05:26:08;99160.06;;;-1.96;100.00
62712;BME280;48772;55.586;37.730;2022-12-10T05:28:46;99175.31;;;-1.85;100.00
62712;BME280;48772;55.586;37.730;2022-12-10T05:31:20;99185.63;;;-1.81;100.00
62712;BME280;48772;55.586;37.730;2022-12-10T05:33:47;99196.72;;;-1.76;100.00
62712;BME280;48772;55.586;37.730;2022-12-10T05:36:15;99186.69;;;-1.86;100.00
62712;BME280;48772;55.586;37.730;2022-12-10T05:38:41;99198.84;;;-1.85;100.00
62712;BME280;48772;55.586;37.730;2022-12-10T05:41:11;99193.00;;;-1.92;100.00
62712;BME280;48772;55.586;37.730;2022-12-10T05:43:37;99190.34;;;-1.90;100.00
62712;BME280;48772;55.586;37.730;2022-12-10T05:46:06;99191.22;;;-1.91;100.00
62712;BME280;48772;55.586;37.730;2022-12-10T05:48:32;99181.75;;;-1.94;100.00
62712;BME280;48772;55.586;37.730;2022-12-10T05:51:03;99198.94;;;-1.88;100.00
62712;BME280;48772;55.586;37.730;2022-12-10T05:53:29;99192.03;;;-1.89;100.00
62712;BME280;48772;55.586;37.730;2022-12-10T05:56:03;99177.38;;;-1.93;100.00
62712;BME280;48772;55.586;37.730;2022-12-10T05:58:29;99187.47;;;-1.84;100.00
62712;BME280;48772;55.586;37.730;2022-12-10T06:00:56;99173.03;;;-1.94;100.00
62712;BME280;48772;55.586;37.730;2022-12-10T06:03:22;99158.59;;;-2.03;100.00
62712;BME280;48772;55.586;37.730;2022-12-10T06:05:48;99172.28;;;-1.96;100.00
62712;BME280;48772;55.586;37.730;2022-12-10T06:08:14;99175.00;;;-1.99;100.00
62712;BME280;48772;55.586;37.730;2022-12-10T06:10:42;99166.53;;;-2.06;100.00
62712;BME280;48772;55.586;37.730;2022-12-10T06:13:08;99164.66;;;-2.02;100.00
62712;BME280;48772;55.586;37.730;2022-12-10T06:15:38;99149.97;;;-2.05;100.00
62712;BME280;48772;55.586;37.730;2022-12-10T06:18:04;99155.94;;;-2.01;100.00
62712;BME280;48772;55.586;37.730;2022-12-10T06:20:30;99164.31;;;-1.93;100.00
62712;BME280;48772;55.586;37.730;2022-12-10T06:22:56;99169.44;;;-1.90;100.00
62712;BME280;48772;55.586;37.730;2022-12-10T06:25:22;99159.81;;;-1.90;100.00
62712;BME280;48772;55.586;37.730;2022-12-10T06:27:47;99149.47;;;-1.93;100.00
62712;BME280;48772;55.586;37.730;2022-12-10T06:30:13;99154.44;;;-1.85;100.00
62712;BME280;48772;55.586;37.730;2022-12-10T06:32:39;99149.31;;;-1.88;100.00
62712;BME280;48772;55.586;37.730;2022-12-10T06:35:05;99135.38;;;-1.89;100.00
62712;BME280;48772;55.586;37.730;2022-12-10T06:37:32;99112.09;;;-1.93;100.00
62712;BME280;48772;55.586;37.730;2022-12-10T06:39:57;99138.53;;;-1.79;100.00
62712;BME280;48772;55.586;37.730;2022-12-10T06:42:23;99142.56;;;-1.72;100.00
62712;BME280;48772;55.586;37.730;2022-12-10T06:44:49;99127.53;;;-1.66;100.00
62712;BME280;48772;55.586;37.730;2022-12-10T06:47:14;99125.63;;;-1.62;100.00
62712;BME280;48772;55.586;37.730;2022-12-10T06:49:40;99128.84;;;-1.56;100.00
62712;BME280;48772;55.586;37.730;2022-12-10T06:52:06;99134.81;;;-1.52;100.00
62712;BME280;48772;55.586;37.730;2022-12-10T06:54:33;99148.47;;;-1.46;100.00
62712;BME280;48772;55.586;37.730;2022-12-10T06:56:59;99157.25;;;-1.47;100.00
62712;BME280;48772;55.586;37.730;2022-12-10T06:59:25;99159.78;;;-1.45;100.00
62712;BME280;48772;55.586;37.730;2022-12-10T07:01:51;99156.44;;;-1.49;100.00
62712;BME280;48772;55.586;37.730;2022-12-10T07:04:16;99168.41;;;-1.43;100.00
62712;BME280;48772;55.586;37.730;2022-12-10T07:06:42;99158.75;;;-1.41;100.00
62712;BME280;48772;55.586;37.730;2022-12-10T07:09:08;99148.66;;;-1.50;100.00
62712;BME280;48772;55.586;37.730;2022-12-10T07:11:35;99148.94;;;-1.36;100.00
62712;BME280;48772;55.586;37.730;2022-12-10T07:14:01;99141.22;;;-1.39;100.00
62712;BME280;48772;55.586;37.730;2022-12-10T07:16:30;99153.16;;;-1.32;100.00
62712;BME280;48772;55.586;37.730;2022-12-10T07:18:57;99165.31;;;-1.31;100.00
62712;BME280;48772;55.586;37.730;2022-12-10T07:21:26;99156.69;;;-1.33;100.00
62712;BME280;48772;55.586;37.730;2022-12-10T07:23:53;99150.53;;;-1.32;100.00
62712;BME280;48772;55.586;37.730;2022-12-10T07:26:21;99142.56;;;-1.29;100.00
62712;BME280;48772;55.586;37.730;2022-12-10T07:28:47;99129.13;;;-1.42;100.00
62712;BME280;48772;55.586;37.730;2022-12-10T07:31:13;99128.84;;;-1.34;100.00
62712;BME280;48772;55.586;37.730;2022-12-10T07:33:39;99134.06;;;-1.34;100.00
62712;BME280;48772;55.586;37.730;2022-12-10T07:36:06;99132.84;;;-1.26;100.00
62712;BME280;48772;55.586;37.730;2022-12-10T07:38:33;99120.13;;;-1.35;100.00
62712;BME280;48772;55.586;37.730;2022-12-10T07:41:03;99119.16;;;-1.32;100.00
62712;BME280;48772;55.586;37.730;2022-12-10T07:43:29;99137.56;;;-1.14;100.00
62712;BME280;48772;55.586;37.730;2022-12-10T07:45:55;99127.97;;;-1.13;100.00
62712;BME280;48772;55.586;37.730;2022-12-10T07:48:21;99092.06;;;-1.30;100.00
62712;BME280;48772;55.586;37.730;2022-12-10T07:50:55;99125.75;;;-1.02;100.00
62712;BME280;48772;55.586;37.730;2022-12-10T07:53:21;99127.38;;;-1.00;100.00
62712;BME280;48772;55.586;37.730;2022-12-10T07:55:47;99115.53;;;-1.08;100.00
62712;BME280;48772;55.586;37.730;2022-12-10T07:58:12;99122.97;;;-0.99;100.00
62712;BME280;48772;55.586;37.730;2022-12-10T08:00:38;99107.69;;;-1.08;100.00
62712;BME280;48772;55.586;37.730;2022-12-10T08:03:04;99089.88;;;-1.00;100.00
62712;BME280;48772;55.586;37.730;2022-12-10T08:05:30;99111.09;;;-0.86;100.00
62712;BME280;48772;55.586;37.730;2022-12-10T08:07:56;99120.19;;;-0.75;100.00
62712;BME280;48772;55.586;37.730;2022-12-10T08:10:21;99106.78;;;-0.87;100.00
62712;BME280;48772;55.586;37.730;2022-12-10T08:12:49;99132.34;;;-0.74;100.00
62712;BME280;48772;55.586;37.730;2022-12-10T08:15:14;99110.22;;;-0.87;100.00
62712;BME280;48772;55.586;37.730;2022-12-10T08:17:41;99080.59;;;-1.07;100.00
62712;BME280;48772;55.586;37.730;2022-12-10T08:20:07;99110.09;;;-0.84;100.00
62712;BME280;48772;55.586;37.730;2022-12-10T08:22:37;99101.66;;;-0.90;100.00
62712;BME280;48772;55.586;37.730;2022-12-10T08:25:05;99096.03;;;-1.01;100.00
62712;BME280;48772;55.586;37.730;2022-12-10T08:27:32;99100.63;;;-1.06;100.00
62712;BME280;48772;55.586;37.730;2022-12-10T08:29:58;99126.78;;;-0.86;100.00
62712;BME280;48772;55.586;37.730;2022-12-10T08:32:24;99124.88;;;-0.83;100.00
62712;BME280;48772;55.586;37.730;2022-12-10T08:34:50;99122.41;;;-0.86;100.00
62712;BME280;48772;55.586;37.730;2022-12-10T08:37:17;99125.78;;;-0.84;100.00
62712;BME280;48772;55.586;37.730;2022-12-10T08:39:43;99122.88;;;-0.76;100.00
62712;BME280;48772;55.586;37.730;2022-12-10T08:42:09;99101.31;;;-0.83;100.00
62712;BME280;48772;55.586;37.730;2022-12-10T08:44:34;99095.25;;;-0.83;100.00
62712;BME280;48772;55.586;37.730;2022-12-10T08:47:01;99118.47;;;-0.76;100.00
62712;BME280;48772;55.586;37.730;2022-12-10T08:49:27;99100.38;;;-0.80;100.00
62712;BME280;48772;55.586;37.730;2022-12-10T08:51:53;99102.97;;;-0.80;100.00
62712;BME280;48772;55.586;37.730;2022-12-10T08:54:19;99063.09;;;-1.05;100.00
62712;BME280;48772;55.586;37.730;2022-12-10T08:56:46;99088.31;;;-0.84;100.00
62712;BME280;48772;55.586;37.730;2022-12-10T08:59:13;99079.13;;;-0.74;100.00
62712;BME280;48772;55.586;37.730;2022-12-10T09:01:52;99048.69;;;-0.95;100.00
62712;BME280;48772;55.586;37.730;2022-12-10T09:04:41;99089.66;;;-0.76;100.00
62712;BME280;48772;55.586;37.730;2022-12-10T09:07:14;99082.03;;;-0.80;100.00
62712;BME280;48772;55.586;37.730;2022-12-10T09:09:47;99125.44;;;-0.56;100.00
62712;BME280;48772;55.586;37.730;2022-12-10T09:12:15;99100.06;;;-0.74;100.00
62712;BME280;48772;55.586;37.730;2022-12-10T09:14:41;99131.03;;;-0.64;100.00
62712;BME280;48772;55.586;37.730;2022-12-10T09:17:08;99104.31;;;-0.72;100.00
62712;BME280;48772;55.586;37.730;2022-12-10T09:19:34;99119.44;;;-0.58;100.00
62712;BME280;48772;55.586;37.730;2022-12-10T09:22:01;99085.94;;;-0.70;100.00
62712;BME280;48772;55.586;37.730;2022-12-10T09:24:27;99117.34;;;-0.50;100.00
62712;BME280;48772;55.586;37.730;2022-12-10T09:26:54;99103.75;;;-0.58;100.00
62712;BME280;48772;55.586;37.730;2022-12-10T09:29:21;99125.56;;;-0.39;100.00
62712;BME280;48772;55.586;37.730;2022-12-10T09:31:51;99106.50;;;-0.43;100.00
62712;BME280;48772;55.586;37.730;2022-12-10T09:34:18;99116.13;;;-0.43;100.00
62712;BME280;48772;55.586;37.730;2022-12-10T09:36:45;99096.25;;;-0.47;100.00
62712;BME280;48772;55.586;37.730;2022-12-10T09:39:11;99102.25;;;-0.45;100.00
62712;BME280;48772;55.586;37.730;2022-12-10T09:42:10;99113.28;;;-0.39;100.00
62712;BME280;48772;55.586;37.730;2022-12-10T09:47:12;99120.00;;;-0.52;100.00
62712;BME280;48772;55.586;37.730;2022-12-10T09:52:35;99080.19;;;-0.58;100.00
62712;BME280;48772;55.586;37.730;2022-12-10T09:55:10;99064.16;;;-0.71;100.00
62712;BME280;48772;55.586;37.730;2022-12-10T09:57:45;99104.03;;;-0.46;100.00
62712;BME280;48772;55.586;37.730;2022-12-10T10:02:59;99076.69;;;-0.59;100.00
62712;BME280;48772;55.586;37.730;2022-12-10T10:05:38;99071.03;;;-0.68;100.00
62712;BME280;48772;55.586;37.730;2022-12-10T10:08:42;99085.84;;;-0.49;100.00
62712;BME280;48772;55.586;37.730;2022-12-10T10:11:28;99032.75;;;-0.71;100.00
62712;BME280;48772;55.586;37.730;2022-12-10T10:14:03;99065.59;;;-0.45;100.00
62712;BME280;48772;55.586;37.730;2022-12-10T10:16:47;99069.44;;;-0.34;100.00
62712;BME280;48772;55.586;37.730;2022-12-10T10:19:18;99039.97;;;-0.57;100.00
62712;BME280;48772;55.586;37.730;2022-12-10T10:21:49;99056.69;;;-0.41;100.00
62712;BME280;48772;55.586;37.730;2022-12-10T10:24:53;99046.88;;;-0.36;100.00
62712;BME280;48772;55.586;37.730;2022-12-10T10:27:15;99071.28;;;-0.17;100.00
62712;BME280;48772;55.586;37.730;2022-12-10T10:29:48;99043.31;;;-0.35;100.00
62712;BME280;48772;55.586;37.730;2022-12-10T10:32:22;99056.84;;;-0.26;100.00
62712;BME280;48772;55.586;37.730;2022-12-10T10:34:54;99056.13;;;-0.29;100.00
62712;BME280;48772;55.586;37.730;2022-12-10T10:37:27;99040.91;;;-0.40;100.00
62712;BME280;48772;55.586;37.730;2022-12-10T10:39:57;99036.53;;;-0.39;100.00
62712;BME280;48772;55.586;37.730;2022-12-10T10:42:40;99033.56;;;-0.50;100.00
62712;BME280;48772;55.586;37.730;2022-12-10T10:45:36;99078.91;;;-0.31;100.00
62712;BME280;48772;55.586;37.730;2022-12-10T10:48:14;99014.06;;;-0.63;100.00
62712;BME280;48772;55.586;37.730;2022-12-10T10:53:28;99073.13;;;-0.38;100.00
62712;BME280;48772;55.586;37.730;2022-12-10T10:56:19;99060.72;;;-0.34;100.00
62712;BME280;48772;55.586;37.730;2022-12-10T10:59:30;98996.31;;;-0.75;100.00
62712;BME280;48772;55.586;37.730;2022-12-10T11:02:03;98998.66;;;-0.69;100.00
62712;BME280;48772;55.586;37.730;2022-12-10T11:04:37;99046.06;;;-0.38;100.00
62712;BME280;48772;55.586;37.730;2022-12-10T11:07:05;99023.00;;;-0.49;100.00
62712;BME280;48772;55.586;37.730;2022-12-10T11:09:40;98994.97;;;-0.65;100.00
62712;BME280;48772;55.586;37.730;2022-12-10T11:12:27;99005.16;;;-0.59;100.00
62712;BME280;48772;55.586;37.730;2022-12-10T11:14:54;99021.53;;;-0.54;100.00
62712;BME280;48772;55.586;37.730;2022-12-10T11:17:23;98981.41;;;-0.73;100.00
62712;BME280;48772;55.586;37.730;2022-12-10T11:20:18;99035.72;;;-0.41;100.00
62712;BME280;48772;55.586;37.730;2022-12-10T11:22:54;98977.00;;;-0.73;100.00
62712;BME280;48772;55.586;37.730;2022-12-10T11:28:38;99014.22;;;-0.48;100.00
62712;BME280;48772;55.586;37.730;2022-12-10T11:40:28;98944.16;;;-0.80;100.00
62712;BME280;48772;55.586;37.730;2022-12-10T11:51:25;98986.69;;;-0.38;100.00
62712;BME280;48772;55.586;37.730;2022-12-10T11:56:50;98990.00;;;-0.34;100.00
62712;BME280;48772;55.586;37.730;2022-12-10T11:59:26;98978.25;;;-0.44;100.00
62712;BME280;48772;55.586;37.730;2022-12-10T12:07:45;98988.31;;;-0.35;100.00
62712;BME280;48772;55.586;37.730;2022-12-10T12:13:27;98973.19;;;-0.47;100.00
62712;BME280;48772;55.586;37.730;2022-12-10T12:16:06;98984.06;;;-0.38;100.00
62712;BME280;48772;55.586;37.730;2022-12-10T12:21:19;98955.00;;;-0.50;100.00
62712;BME280;48772;55.586;37.730;2022-12-10T12:23:58;98947.06;;;-0.49;100.00
62712;BME280;48772;55.586;37.730;2022-12-10T12:29:17;98975.16;;;-0.34;100.00
62712;BME280;48772;55.586;37.730;2022-12-10T12:32:13;98979.41;;;-0.31;100.00
62712;BME280;48772;55.586;37.730;2022-12-10T12:38:44;98967.38;;;-0.35;100.00
62712;BME280;48772;55.586;37.730;2022-12-10T12:41:43;98930.88;;;-0.57;100.00
62712;BME280;48772;55.586;37.730;2022-12-10T12:51:58;98969.91;;;-0.34;100.00
62712;BME280;48772;55.586;37.730;2022-12-10T12:54:27;98925.56;;;-0.55;100.00
62712;BME280;48772;55.586;37.730;2022-12-10T12:57:07;98958.56;;;-0.34;100.00
62712;BME280;48772;55.586;37.730;2022-12-10T12:59:55;98941.59;;;-0.44;100.00
62712;BME280;48772;55.586;37.730;2022-12-10T13:02:45;98964.38;;;-0.28;100.00
62712;BME280;48772;55.586;37.730;2022-12-10T13:05:33;98938.09;;;-0.43;100.00
62712;BME280;48772;55.586;37.730;2022-12-10T13:08:29;98943.06;;;-0.39;100.00
62712;BME280;48772;55.586;37.730;2022-12-10T13:13:38;98965.22;;;-0.27;100.00
62712;BME280;48772;55.586;37.730;2022-12-10T13:19:28;98934.41;;;-0.39;100.00
62712;BME280;48772;55.586;37.730;2022-12-10T13:23:28;98970.03;;;-0.18;100.00
62712;BME280;48772;55.586;37.730;2022-12-10T13:27:04;98958.63;;;-0.17;100.00
62712;BME280;48772;55.586;37.730;2022-12-10T13:30:39;98955.22;;;-0.19;100.00
62712;BME280;48772;55.586;37.730;2022-12-10T13:44:31;98941.38;;;-0.21;100.00
62712;BME280;48772;55.586;37.730;2022-12-10T13:47:48;98941.06;;;-0.15;100.00
62712;BME280;48772;55.586;37.730;2022-12-10T13:50:16;98949.78;;;-0.15;100.00
62712;BME280;48772;55.586;37.730;2022-12-10T14:03:33;98930.06;;;-0.05;100.00
62712;BME280;48772;55.586;37.730;2022-12-10T14:06:22;98924.81;;;-0.05;100.00
62712;BME280;48772;55.586;37.730;2022-12-10T14:11:28;98924.81;;;-0.05;100.00
62712;BME280;48772;55.586;37.730;2022-12-10T14:13:57;98923.97;;;-0.05;100.00
62712;BME280;48772;55.586;37.730;2022-12-10T14:16:27;98893.28;;;-0.20;100.00
62712;BME280;48772;55.586;37.730;2022-12-10T14:18:58;98922.00;;;0.00;100.00
62712;BME280;48772;55.586;37.730;2022-12-10T14:21:25;98920.13;;;0.02;100.00
62712;BME280;48772;55.586;37.730;2022-12-10T14:23:52;98916.75;;;0.00;100.00
62712;BME280;48772;55.586;37.730;2022-12-10T14:26:21;98913.19;;;0.01;100.00
62712;BME280;48772;55.586;37.730;2022-12-10T14:28:57;98897.47;;;0.01;100.00
62712;BME280;48772;55.586;37.730;2022-12-10T14:31:44;98892.22;;;0.01;100.00
62712;BME280;48772;55.586;37.730;2022-12-10T14:34:17;98854.94;;;-0.21;100.00
62712;BME280;48772;55.586;37.730;2022-12-10T14:36:46;98877.59;;;-0.03;100.00
62712;BME280;48772;55.586;37.730;2022-12-10T14:39:21;98871.03;;;-0.12;100.00
62712;BME280;48772;55.586;37.730;2022-12-10T14:41:52;98884.31;;;0.03;100.00
62712;BME280;48772;55.586;37.730;2022-12-10T14:44:45;98877.97;;;0.07;100.00
62712;BME280;48772;55.586;37.730;2022-12-10T14:47:21;98842.38;;;-0.15;100.00
62712;BME280;48772;55.586;37.730;2022-12-10T14:50:20;98871.94;;;0.04;100.00